sensor_id;sensor_type;location;lat;lon;timestamp;P1;durP1;ratioP1;P2;durP2;ratioP2
9689;SDS011;4884;42.614;23.340;2022-09-09T00:00:44;11.53;;;10.43;;
9689;SDS011;4884;42.614;23.340;2022-09-09T00:03:26;11.63;;;10.43;;
9689;SDS011;4884;42.614;23.340;2022-09-09T00:06:07;10.63;;;9.63;;
9689;SDS011;4884;42.614;23.340;2022-09-09T00:08:45;11.70;;;9.90;;
9689;SDS011;4884;42.614;23.340;2022-09-09T00:11:35;10.67;;;9.77;;
9689;SDS011;4884;42.614;23.340;2022-09-09T00:14:12;12.93;;;10.23;;
9689;SDS011;4884;42.614;23.340;2022-09-09T00:16:43;12.33;;;11.13;;
9689;SDS011;4884;42.614;23.340;2022-09-09T00:21:59;11.03;;;9.97;;
9689;SDS011;4884;42.614;23.340;2022-09-09T00:24:41;15.87;;;10.63;;
9689;SDS011;4884;42.614;23.340;2022-09-09T00:27:44;12.67;;;11.47;;
9689;SDS011;4884;42.614;23.340;2022-09-09T00:32:53;10.30;;;9.30;;
9689;SDS011;4884;42.614;23.340;2022-09-09T00:35:37;12.50;;;11.33;;
9689;SDS011;4884;42.614;23.340;2022-09-09T00:38:10;10.90;;;9.90;;
9689;SDS011;4884;42.614;23.340;2022-09-09T00:40:56;11.03;;;10.03;;
9689;SDS011;4884;42.614;23.340;2022-09-09T00:43:36;12.20;;;10.93;;
9689;SDS011;4884;42.614;23.340;2022-09-09T00:49:01;12.37;;;11.20;;
9689;SDS011;4884;42.614;23.340;2022-09-09T00:51:43;12.30;;;11.07;;
9689;SDS011;4884;42.614;23.340;2022-09-09T00:57:35;10.57;;;9.53;;
9689;SDS011;4884;42.614;23.340;2022-09-09T01:05:23;11.57;;;10.37;;
9689;SDS011;4884;42.614;23.340;2022-09-09T01:07:55;12.00;;;10.93;;
9689;SDS011;4884;42.614;23.340;2022-09-09T01:13:04;10.17;;;8.60;;
9689;SDS011;4884;42.614;23.340;2022-09-09T01:15:39;10.57;;;9.47;;
9689;SDS011;4884;42.614;23.340;2022-09-09T01:18:08;10.47;;;9.47;;
9689;SDS011;4884;42.614;23.340;2022-09-09T01:20:44;10.63;;;9.53;;
9689;SDS011;4884;42.614;23.340;2022-09-09T01:28:38;8.37;;;7.67;;
9689;SDS011;4884;42.614;23.340;2022-09-09T01:31:04;9.47;;;8.57;;
9689;SDS011;4884;42.614;23.340;2022-09-09T01:33:33;10.63;;;9.10;;
9689;SDS011;4884;42.614;23.340;2022-09-09T01:36:00;9.20;;;8.30;;
9689;SDS011;4884;42.614;23.340;2022-09-09T01:38:33;11.70;;;9.00;;
9689;SDS011;4884;42.614;23.340;2022-09-09T01:41:04;9.33;;;8.43;;
9689;SDS011;4884;42.614;23.340;2022-09-09T01:43:29;9.00;;;8.27;;
9689;SDS011;4884;42.614;23.340;2022-09-09T01:45:56;10.53;;;9.03;;
9689;SDS011;4884;42.614;23.340;2022-09-09T01:48:24;9.57;;;8.77;;
9689;SDS011;4884;42.614;23.340;2022-09-09T01:50:50;9.10;;;8.27;;
9689;SDS011;4884;42.614;23.340;2022-09-09T01:53:18;9.83;;;8.83;;
9689;SDS011;4884;42.614;23.340;2022-09-09T01:56:00;10.67;;;9.57;;
9689;SDS011;4884;42.614;23.340;2022-09-09T01:58:40;9.90;;;9.10;;
9689;SDS011;4884;42.614;23.340;2022-09-09T02:03:44;12.17;;;11.07;;
9689;SDS011;4884;42.614;23.340;2022-09-09T02:06:15;10.30;;;9.37;;
9689;SDS011;4884;42.614;23.340;2022-09-09T02:08:48;9.27;;;8.47;;
9689;SDS011;4884;42.614;23.340;2022-09-09T02:11:16;10.83;;;9.57;;
9689;SDS011;4884;42.614;23.340;2022-09-09T02:13:45;10.33;;;9.33;;
9689;SDS011;4884;42.614;23.340;2022-09-09T02:19:11;10.00;;;8.90;;
9689;SDS011;4884;42.614;23.340;2022-09-09T02:21:40;11.27;;;10.27;;
9689;SDS011;4884;42.614;23.340;2022-09-09T02:24:07;10.47;;;9.57;;
9689;SDS011;4884;42.614;23.340;2022-09-09T02:26:36;11.07;;;10.07;;
9689;SDS011;4884;42.614;23.340;2022-09-09T02:29:06;11.00;;;9.90;;
9689;SDS011;4884;42.614;23.340;2022-09-09T02:31:34;10.87;;;9.87;;
9689;SDS011;4884;42.614;23.340;2022-09-09T02:34:02;12.50;;;11.30;;
9689;SDS011;4884;42.614;23.340;2022-09-09T02:36:29;12.23;;;10.97;;
9689;SDS011;4884;42.614;23.340;2022-09-09T02:38:58;15.07;;;11.30;;
9689;SDS011;4884;42.614;23.340;2022-09-09T02:41:27;12.87;;;11.67;;
9689;SDS011;4884;42.614;23.340;2022-09-09T02:43:57;12.40;;;11.20;;
9689;SDS011;4884;42.614;23.340;2022-09-09T02:52:01;12.80;;;11.53;;
9689;SDS011;4884;42.614;23.340;2022-09-09T02:54:32;13.10;;;11.90;;
9689;SDS011;4884;42.614;23.340;2022-09-09T02:57:10;12.77;;;11.63;;
9689;SDS011;4884;42.614;23.340;2022-09-09T02:59:37;12.83;;;11.47;;
9689;SDS011;4884;42.614;23.340;2022-09-09T03:02:04;13.57;;;12.17;;
9689;SDS011;4884;42.614;23.340;2022-09-09T03:04:29;13.57;;;12.27;;
9689;SDS011;4884;42.614;23.340;2022-09-09T03:06:56;14.00;;;12.57;;
9689;SDS011;4884;42.614;23.340;2022-09-09T03:09:22;27.97;;;25.17;;
9689;SDS011;4884;42.614;23.340;2022-09-09T03:11:51;20.17;;;18.00;;
9689;SDS011;4884;42.614;23.340;2022-09-09T03:14:17;13.03;;;11.73;;
9689;SDS011;4884;42.614;23.340;2022-09-09T03:16:46;52.83;;;45.97;;
9689;SDS011;4884;42.614;23.340;2022-09-09T03:19:12;56.20;;;45.30;;
9689;SDS011;4884;42.614;23.340;2022-09-09T03:21:37;36.10;;;31.63;;
9689;SDS011;4884;42.614;23.340;2022-09-09T03:24:03;31.90;;;28.53;;
9689;SDS011;4884;42.614;23.340;2022-09-09T03:26:31;33.57;;;29.63;;
9689;SDS011;4884;42.614;23.340;2022-09-09T03:28:57;21.27;;;19.17;;
9689;SDS011;4884;42.614;23.340;2022-09-09T03:31:25;34.40;;;29.53;;
9689;SDS011;4884;42.614;23.340;2022-09-09T03:33:56;46.33;;;38.60;;
9689;SDS011;4884;42.614;23.340;2022-09-09T03:36:26;42.30;;;37.40;;
9689;SDS011;4884;42.614;23.340;2022-09-09T03:38:52;49.27;;;44.20;;
9689;SDS011;4884;42.614;23.340;2022-09-09T03:41:19;93.10;;;81.23;;
9689;SDS011;4884;42.614;23.340;2022-09-09T03:43:46;140.13;;;124.77;;
9689;SDS011;4884;42.614;23.340;2022-09-09T03:46:16;30.70;;;27.83;;
9689;SDS011;4884;42.614;23.340;2022-09-09T03:48:42;16.03;;;14.47;;
9689;SDS011;4884;42.614;23.340;2022-09-09T03:51:08;13.93;;;12.70;;
9689;SDS011;4884;42.614;23.340;2022-09-09T03:53:33;16.20;;;13.63;;
9689;SDS011;4884;42.614;23.340;2022-09-09T03:56:03;15.10;;;13.50;;
9689;SDS011;4884;42.614;23.340;2022-09-09T03:58:33;16.40;;;14.80;;
9689;SDS011;4884;42.614;23.340;2022-09-09T04:01:03;28.83;;;26.47;;
9689;SDS011;4884;42.614;23.340;2022-09-09T04:03:38;28.17;;;25.43;;
9689;SDS011;4884;42.614;23.340;2022-09-09T04:06:04;17.93;;;16.17;;
9689;SDS011;4884;42.614;23.340;2022-09-09T04:08:32;17.30;;;15.60;;
9689;SDS011;4884;42.614;23.340;2022-09-09T04:10:58;13.70;;;12.30;;
9689;SDS011;4884;42.614;23.340;2022-09-09T04:13:24;13.27;;;11.97;;
9689;SDS011;4884;42.614;23.340;2022-09-09T04:15:51;14.80;;;13.00;;
9689;SDS011;4884;42.614;23.340;2022-09-09T04:18:17;14.20;;;12.87;;
9689;SDS011;4884;42.614;23.340;2022-09-09T04:20:45;14.93;;;13.33;;
9689;SDS011;4884;42.614;23.340;2022-09-09T04:23:15;14.60;;;13.10;;
9689;SDS011;4884;42.614;23.340;2022-09-09T04:25:44;14.57;;;13.10;;
9689;SDS011;4884;42.614;23.340;2022-09-09T04:28:14;14.63;;;13.27;;
9689;SDS011;4884;42.614;23.340;2022-09-09T04:30:40;13.93;;;12.53;;
9689;SDS011;4884;42.614;23.340;2022-09-09T04:33:06;14.50;;;13.07;;
9689;SDS011;4884;42.614;23.340;2022-09-09T04:35:32;14.07;;;12.70;;
9689;SDS011;4884;42.614;23.340;2022-09-09T04:37:58;14.63;;;13.03;;
9689;SDS011;4884;42.614;23.340;2022-09-09T04:40:23;18.30;;;13.30;;
9689;SDS011;4884;42.614;23.340;2022-09-09T04:42:54;15.30;;;13.70;;
9689;SDS011;4884;42.614;23.340;2022-09-09T04:45:20;13.60;;;12.20;;
9689;SDS011;4884;42.614;23.340;2022-09-09T04:47:46;15.53;;;13.93;;
9689;SDS011;4884;42.614;23.340;2022-09-09T04:50:11;15.37;;;13.83;;
9689;SDS011;4884;42.614;23.340;2022-09-09T04:52:37;16.07;;;14.33;;
9689;SDS011;4884;42.614;23.340;2022-09-09T05:05:40;15.13;;;13.40;;
9689;SDS011;4884;42.614;23.340;2022-09-09T05:08:06;13.53;;;12.40;;
9689;SDS011;4884;42.614;23.340;2022-09-09T05:10:33;13.40;;;12.13;;
9689;SDS011;4884;42.614;23.340;2022-09-09T05:13:01;13.87;;;12.67;;
9689;SDS011;4884;42.614;23.340;2022-09-09T05:15:27;13.43;;;12.20;;
9689;SDS011;4884;42.614;23.340;2022-09-09T05:17:52;14.03;;;12.90;;
9689;SDS011;4884;42.614;23.340;2022-09-09T05:20:22;12.63;;;11.60;;
9689;SDS011;4884;42.614;23.340;2022-09-09T05:22:47;12.77;;;11.47;;
9689;SDS011;4884;42.614;23.340;2022-09-09T05:25:12;12.20;;;11.10;;
9689;SDS011;4884;42.614;23.340;2022-09-09T05:27:42;12.37;;;11.33;;
9689;SDS011;4884;42.614;23.340;2022-09-09T05:30:07;13.97;;;12.67;;
9689;SDS011;4884;42.614;23.340;2022-09-09T05:32:33;14.10;;;12.47;;
9689;SDS011;4884;42.614;23.340;2022-09-09T05:34:59;11.87;;;10.70;;
9689;SDS011;4884;42.614;23.340;2022-09-09T05:37:24;14.17;;;12.73;;
9689;SDS011;4884;42.614;23.340;2022-09-09T05:39:50;12.47;;;11.23;;
9689;SDS011;4884;42.614;23.340;2022-09-09T05:42:18;13.77;;;12.40;;
9689;SDS011;4884;42.614;23.340;2022-09-09T05:44:43;13.87;;;12.43;;
9689;SDS011;4884;42.614;23.340;2022-09-09T05:47:09;14.60;;;13.13;;
9689;SDS011;4884;42.614;23.340;2022-09-09T05:49:35;14.97;;;13.40;;
9689;SDS011;4884;42.614;23.340;2022-09-09T05:52:01;18.37;;;14.03;;
9689;SDS011;4884;42.614;23.340;2022-09-09T05:54:28;16.33;;;14.53;;
9689;SDS011;4884;42.614;23.340;2022-09-09T05:56:54;15.33;;;13.83;;
9689;SDS011;4884;42.614;23.340;2022-09-09T05:59:20;20.03;;;14.20;;
9689;SDS011;4884;42.614;23.340;2022-09-09T06:01:47;17.07;;;15.27;;
9689;SDS011;4884;42.614;23.340;2022-09-09T06:04:13;18.67;;;14.87;;
9689;SDS011;4884;42.614;23.340;2022-09-09T06:06:39;16.27;;;14.57;;
9689;SDS011;4884;42.614;23.340;2022-09-09T06:09:06;15.90;;;14.37;;
9689;SDS011;4884;42.614;23.340;2022-09-09T06:11:35;21.80;;;15.70;;
9689;SDS011;4884;42.614;23.340;2022-09-09T06:14:01;15.53;;;14.10;;
9689;SDS011;4884;42.614;23.340;2022-09-09T06:16:27;15.57;;;14.07;;
9689;SDS011;4884;42.614;23.340;2022-09-09T06:18:55;13.90;;;12.60;;
9689;SDS011;4884;42.614;23.340;2022-09-09T06:21:33;14.50;;;13.03;;
9689;SDS011;4884;42.614;23.340;2022-09-09T06:24:01;14.67;;;13.03;;
9689;SDS011;4884;42.614;23.340;2022-09-09T06:26:34;14.30;;;13.03;;
9689;SDS011;4884;42.614;23.340;2022-09-09T06:29:01;12.40;;;11.10;;
9689;SDS011;4884;42.614;23.340;2022-09-09T06:31:29;14.23;;;11.90;;
9689;SDS011;4884;42.614;23.340;2022-09-09T06:33:55;12.73;;;11.63;;
9689;SDS011;4884;42.614;23.340;2022-09-09T06:36:22;13.13;;;11.83;;
9689;SDS011;4884;42.614;23.340;2022-09-09T06:38:49;13.63;;;11.37;;
9689;SDS011;4884;42.614;23.340;2022-09-09T06:41:16;12.53;;;9.30;;
9689;SDS011;4884;42.614;23.340;2022-09-09T06:43:43;9.83;;;8.83;;
9689;SDS011;4884;42.614;23.340;2022-09-09T06:46:13;9.97;;;9.03;;
9689;SDS011;4884;42.614;23.340;2022-09-09T06:48:43;13.93;;;9.03;;
9689;SDS011;4884;42.614;23.340;2022-09-09T06:51:10;10.37;;;9.37;;
9689;SDS011;4884;42.614;23.340;2022-09-09T06:53:38;9.73;;;8.73;;
9689;SDS011;4884;42.614;23.340;2022-09-09T06:58:37;9.13;;;8.27;;
9689;SDS011;4884;42.614;23.340;2022-09-09T07:01:03;11.30;;;8.60;;
9689;SDS011;4884;42.614;23.340;2022-09-09T07:03:32;9.05;;;8.25;;
9689;SDS011;4884;42.614;23.340;2022-09-09T07:05:58;10.07;;;8.85;;
9689;SDS011;4884;42.614;23.340;2022-09-09T07:08:24;9.45;;;8.65;;
9689;SDS011;4884;42.614;23.340;2022-09-09T07:10:50;9.45;;;8.27;;
9689;SDS011;4884;42.614;23.340;2022-09-09T07:13:19;10.35;;;8.23;;
9689;SDS011;4884;42.614;23.340;2022-09-09T07:15:51;11.32;;;8.82;;
9689;SDS011;4884;42.614;23.340;2022-09-09T07:18:17;9.82;;;7.80;;
9689;SDS011;4884;42.614;23.340;2022-09-09T07:20:43;8.15;;;7.28;;
9689;SDS011;4884;42.614;23.340;2022-09-09T07:23:08;9.15;;;8.38;;
9689;SDS011;4884;42.614;23.340;2022-09-09T07:25:33;13.25;;;8.40;;
9689;SDS011;4884;42.614;23.340;2022-09-09T07:27:59;9.18;;;8.32;;
9689;SDS011;4884;42.614;23.340;2022-09-09T07:30:24;9.02;;;8.15;;
9689;SDS011;4884;42.614;23.340;2022-09-09T07:32:53;14.50;;;8.18;;
9689;SDS011;4884;42.614;23.340;2022-09-09T07:35:18;8.95;;;8.00;;
9689;SDS011;4884;42.614;23.340;2022-09-09T07:37:44;10.88;;;7.57;;
9689;SDS011;4884;42.614;23.340;2022-09-09T07:40:10;9.98;;;8.95;;
9689;SDS011;4884;42.614;23.340;2022-09-09T07:42:38;12.85;;;7.68;;
9689;SDS011;4884;42.614;23.340;2022-09-09T07:45:03;12.05;;;8.45;;
9689;SDS011;4884;42.614;23.340;2022-09-09T07:47:30;13.75;;;8.52;;
9689;SDS011;4884;42.614;23.340;2022-09-09T07:49:56;8.93;;;8.00;;
9689;SDS011;4884;42.614;23.340;2022-09-09T07:52:21;14.18;;;8.73;;
9689;SDS011;4884;42.614;23.340;2022-09-09T07:54:48;8.15;;;7.55;;
9689;SDS011;4884;42.614;23.340;2022-09-09T07:57:14;9.60;;;8.60;;
9689;SDS011;4884;42.614;23.340;2022-09-09T07:59:41;8.43;;;7.65;;
9689;SDS011;4884;42.614;23.340;2022-09-09T08:02:08;9.48;;;8.18;;
9689;SDS011;4884;42.614;23.340;2022-09-09T08:04:38;8.10;;;7.30;;
9689;SDS011;4884;42.614;23.340;2022-09-09T08:07:03;8.95;;;7.78;;
9689;SDS011;4884;42.614;23.340;2022-09-09T08:09:30;9.75;;;6.88;;
9689;SDS011;4884;42.614;23.340;2022-09-09T08:11:59;9.13;;;8.30;;
9689;SDS011;4884;42.614;23.340;2022-09-09T08:14:26;9.13;;;7.80;;
9689;SDS011;4884;42.614;23.340;2022-09-09T08:16:52;9.88;;;7.93;;
9689;SDS011;4884;42.614;23.340;2022-09-09T08:19:22;11.07;;;8.32;;
9689;SDS011;4884;42.614;23.340;2022-09-09T08:21:48;11.32;;;8.52;;
9689;SDS011;4884;42.614;23.340;2022-09-09T08:24:15;8.30;;;7.38;;
9689;SDS011;4884;42.614;23.340;2022-09-09T08:26:42;11.40;;;8.05;;
9689;SDS011;4884;42.614;23.340;2022-09-09T08:29:10;6.85;;;6.20;;
9689;SDS011;4884;42.614;23.340;2022-09-09T08:31:37;8.32;;;7.60;;
9689;SDS011;4884;42.614;23.340;2022-09-09T08:34:04;10.68;;;8.15;;
9689;SDS011;4884;42.614;23.340;2022-09-09T08:36:36;9.13;;;8.40;;
9689;SDS011;4884;42.614;23.340;2022-09-09T08:39:04;9.35;;;8.20;;
9689;SDS011;4884;42.614;23.340;2022-09-09T08:41:35;10.65;;;8.02;;
9689;SDS011;4884;42.614;23.340;2022-09-09T08:55:33;8.98;;;8.10;;
9689;SDS011;4884;42.614;23.340;2022-09-09T08:58:04;12.00;;;8.80;;
9689;SDS011;4884;42.614;23.340;2022-09-09T09:00:54;10.30;;;8.63;;
9689;SDS011;4884;42.614;23.340;2022-09-09T09:08:47;8.75;;;7.05;;
9689;SDS011;4884;42.614;23.340;2022-09-09T09:11:25;10.00;;;8.60;;
9689;SDS011;4884;42.614;23.340;2022-09-09T09:13:54;8.07;;;7.32;;
9689;SDS011;4884;42.614;23.340;2022-09-09T09:16:48;8.57;;;7.47;;
9689;SDS011;4884;42.614;23.340;2022-09-09T09:19:18;12.18;;;7.05;;
9689;SDS011;4884;42.614;23.340;2022-09-09T09:21:51;8.88;;;7.25;;
9689;SDS011;4884;42.614;23.340;2022-09-09T09:24:33;11.32;;;7.45;;
9689;SDS011;4884;42.614;23.340;2022-09-09T09:27:14;7.80;;;7.00;;
9689;SDS011;4884;42.614;23.340;2022-09-09T09:30:02;7.65;;;6.93;;
9689;SDS011;4884;42.614;23.340;2022-09-09T09:32:36;8.43;;;7.32;;
9689;SDS011;4884;42.614;23.340;2022-09-09T09:35:06;7.15;;;6.43;;
9689;SDS011;4884;42.614;23.340;2022-09-09T09:37:35;7.57;;;6.47;;
9689;SDS011;4884;42.614;23.340;2022-09-09T09:42:37;7.50;;;7.00;;
9689;SDS011;4884;42.614;23.340;2022-09-09T09:48:10;9.20;;;7.28;;
9689;SDS011;4884;42.614;23.340;2022-09-09T09:50:39;8.40;;;7.50;;
9689;SDS011;4884;42.614;23.340;2022-09-09T09:53:28;7.60;;;7.00;;
9689;SDS011;4884;42.614;23.340;2022-09-09T09:55:59;7.82;;;7.22;;
9689;SDS011;4884;42.614;23.340;2022-09-09T09:58:26;8.05;;;7.00;;
9689;SDS011;4884;42.614;23.340;2022-09-09T10:00:53;10.73;;;7.65;;
9689;SDS011;4884;42.614;23.340;2022-09-09T10:03:32;9.75;;;7.85;;
9689;SDS011;4884;42.614;23.340;2022-09-09T10:06:04;13.50;;;7.35;;
9689;SDS011;4884;42.614;23.340;2022-09-09T10:08:32;10.18;;;7.35;;
9689;SDS011;4884;42.614;23.340;2022-09-09T10:19:05;9.73;;;7.38;;
9689;SDS011;4884;42.614;23.340;2022-09-09T10:30:09;10.20;;;7.88;;
9689;SDS011;4884;42.614;23.340;2022-09-09T10:35:32;10.98;;;7.47;;
9689;SDS011;4884;42.614;23.340;2022-09-09T10:41:25;9.70;;;7.80;;
9689;SDS011;4884;42.614;23.340;2022-09-09T10:44:03;8.18;;;7.28;;
9689;SDS011;4884;42.614;23.340;2022-09-09T10:53:08;9.07;;;8.18;;
9689;SDS011;4884;42.614;23.340;2022-09-09T10:55:33;12.05;;;7.35;;
9689;SDS011;4884;42.614;23.340;2022-09-09T10:58:04;8.38;;;7.55;;
9689;SDS011;4884;42.614;23.340;2022-09-09T11:00:47;8.77;;;7.03;;
9689;SDS011;4884;42.614;23.340;2022-09-09T11:03:20;8.63;;;7.88;;
9689;SDS011;4884;42.614;23.340;2022-09-09T11:06:36;10.68;;;8.10;;
9689;SDS011;4884;42.614;23.340;2022-09-09T11:08:40;10.63;;;9.40;;
9689;SDS011;4884;42.614;23.340;2022-09-09T11:11:17;10.55;;;6.93;;
9689;SDS011;4884;42.614;23.340;2022-09-09T11:19:04;10.65;;;7.57;;
9689;SDS011;4884;42.614;23.340;2022-09-09T11:21:37;8.73;;;7.90;;
9689;SDS011;4884;42.614;23.340;2022-09-09T11:24:10;11.27;;;7.70;;
9689;SDS011;4884;42.614;23.340;2022-09-09T11:27:02;8.77;;;7.93;;
9689;SDS011;4884;42.614;23.340;2022-09-09T11:40:36;9.18;;;8.25;;
9689;SDS011;4884;42.614;23.340;2022-09-09T11:43:04;8.30;;;7.60;;
9689;SDS011;4884;42.614;23.340;2022-09-09T11:45:33;11.93;;;7.85;;
9689;SDS011;4884;42.614;23.340;2022-09-09T11:48:01;7.45;;;6.75;;
9689;SDS011;4884;42.614;23.340;2022-09-09T11:53:03;9.15;;;8.25;;
9689;SDS011;4884;42.614;23.340;2022-09-09T11:55:34;9.70;;;8.80;;
9689;SDS011;4884;42.614;23.340;2022-09-09T11:58:02;8.32;;;7.65;;
9689;SDS011;4884;42.614;23.340;2022-09-09T12:08:36;9.45;;;7.60;;
9689;SDS011;4884;42.614;23.340;2022-09-09T12:11:02;12.18;;;8.40;;
9689;SDS011;4884;42.614;23.340;2022-09-09T12:13:33;12.15;;;8.48;;
9689;SDS011;4884;42.614;23.340;2022-09-09T12:15:59;9.82;;;8.80;;
9689;SDS011;4884;42.614;23.340;2022-09-09T12:21:04;11.70;;;8.35;;
9689;SDS011;4884;42.614;23.340;2022-09-09T12:34:36;12.23;;;8.55;;
9689;SDS011;4884;42.614;23.340;2022-09-09T12:39:58;16.58;;;8.30;;
9689;SDS011;4884;42.614;23.340;2022-09-09T12:42:25;10.45;;;8.30;;
9689;SDS011;4884;42.614;23.340;2022-09-09T12:44:56;13.05;;;9.38;;
9689;SDS011;4884;42.614;23.340;2022-09-09T12:47:42;10.20;;;8.73;;
9689;SDS011;4884;42.614;23.340;2022-09-09T12:53:07;9.85;;;8.93;;
9689;SDS011;4884;42.614;23.340;2022-09-09T12:55:36;11.13;;;10.02;;
9689;SDS011;4884;42.614;23.340;2022-09-09T12:58:03;11.38;;;9.48;;
9689;SDS011;4884;42.614;23.340;2022-09-09T13:00:31;11.70;;;9.05;;
9689;SDS011;4884;42.614;23.340;2022-09-09T13:02:58;9.93;;;8.77;;
9689;SDS011;4884;42.614;23.340;2022-09-09T13:08:01;10.15;;;8.63;;
9689;SDS011;4884;42.614;23.340;2022-09-09T13:11:13;11.27;;;9.02;;
9689;SDS011;4884;42.614;23.340;2022-09-09T13:13:26;12.32;;;9.48;;
9689;SDS011;4884;42.614;23.340;2022-09-09T13:15:53;13.55;;;9.38;;
9689;SDS011;4884;42.614;23.340;2022-09-09T13:18:24;11.25;;;9.27;;
9689;SDS011;4884;42.614;23.340;2022-09-09T13:20:52;9.63;;;8.82;;
9689;SDS011;4884;42.614;23.340;2022-09-09T13:23:18;12.25;;;9.15;;
9689;SDS011;4884;42.614;23.340;2022-09-09T13:25:52;11.43;;;8.30;;
9689;SDS011;4884;42.614;23.340;2022-09-09T13:28:21;17.38;;;9.07;;
9689;SDS011;4884;42.614;23.340;2022-09-09T13:30:59;10.18;;;9.18;;
9689;SDS011;4884;42.614;23.340;2022-09-09T13:33:34;12.30;;;8.25;;
9689;SDS011;4884;42.614;23.340;2022-09-09T13:38:36;15.68;;;9.43;;
9689;SDS011;4884;42.614;23.340;2022-09-09T13:41:21;10.15;;;9.07;;
9689;SDS011;4884;42.614;23.340;2022-09-09T13:43:49;9.70;;;8.30;;
9689;SDS011;4884;42.614;23.340;2022-09-09T13:54:08;9.82;;;8.73;;
9689;SDS011;4884;42.614;23.340;2022-09-09T13:56:35;10.40;;;8.82;;
9689;SDS011;4884;42.614;23.340;2022-09-09T13:59:02;14.95;;;9.25;;
9689;SDS011;4884;42.614;23.340;2022-09-09T14:01:29;10.05;;;8.68;;
9689;SDS011;4884;42.614;23.340;2022-09-09T14:03:55;10.82;;;8.68;;
9689;SDS011;4884;42.614;23.340;2022-09-09T14:06:20;15.95;;;8.52;;
9689;SDS011;4884;42.614;23.340;2022-09-09T14:08:47;9.43;;;8.15;;
9689;SDS011;4884;42.614;23.340;2022-09-09T14:11:14;8.55;;;7.78;;
9689;SDS011;4884;42.614;23.340;2022-09-09T14:13:39;14.10;;;11.23;;
9689;SDS011;4884;42.614;23.340;2022-09-09T14:16:05;12.60;;;9.13;;
9689;SDS011;4884;42.614;23.340;2022-09-09T14:18:31;10.13;;;8.82;;
9689;SDS011;4884;42.614;23.340;2022-09-09T14:20:56;12.90;;;8.50;;
9689;SDS011;4884;42.614;23.340;2022-09-09T14:23:23;18.48;;;10.65;;
9689;SDS011;4884;42.614;23.340;2022-09-09T14:25:49;11.13;;;8.05;;
9689;SDS011;4884;42.614;23.340;2022-09-09T14:28:15;10.57;;;8.45;;
9689;SDS011;4884;42.614;23.340;2022-09-09T14:30:41;13.38;;;8.73;;
9689;SDS011;4884;42.614;23.340;2022-09-09T14:33:09;9.93;;;8.82;;
9689;SDS011;4884;42.614;23.340;2022-09-09T14:35:37;13.70;;;8.38;;
9689;SDS011;4884;42.614;23.340;2022-09-09T14:38:04;12.07;;;8.75;;
9689;SDS011;4884;42.614;23.340;2022-09-09T14:40:30;12.80;;;8.15;;
9689;SDS011;4884;42.614;23.340;2022-09-09T14:42:55;12.30;;;7.63;;
9689;SDS011;4884;42.614;23.340;2022-09-09T14:45:21;9.65;;;8.15;;
9689;SDS011;4884;42.614;23.340;2022-09-09T14:47:49;10.43;;;7.88;;
9689;SDS011;4884;42.614;23.340;2022-09-09T14:50:14;8.25;;;7.35;;
9689;SDS011;4884;42.614;23.340;2022-09-09T14:52:40;16.13;;;8.88;;
9689;SDS011;4884;42.614;23.340;2022-09-09T14:55:05;9.57;;;8.10;;
9689;SDS011;4884;42.614;23.340;2022-09-09T14:57:32;13.93;;;8.27;;
9689;SDS011;4884;42.614;23.340;2022-09-09T14:59:57;10.00;;;8.65;;
9689;SDS011;4884;42.614;23.340;2022-09-09T15:02:23;10.20;;;9.02;;
9689;SDS011;4884;42.614;23.340;2022-09-09T15:04:48;9.80;;;8.68;;
9689;SDS011;4884;42.614;23.340;2022-09-09T15:07:15;14.65;;;8.15;;
9689;SDS011;4884;42.614;23.340;2022-09-09T15:09:41;12.20;;;8.52;;
9689;SDS011;4884;42.614;23.340;2022-09-09T15:12:07;8.80;;;7.80;;
9689;SDS011;4884;42.614;23.340;2022-09-09T15:14:32;11.93;;;9.25;;
9689;SDS011;4884;42.614;23.340;2022-09-09T15:16:58;15.77;;;9.32;;
9689;SDS011;4884;42.614;23.340;2022-09-09T15:19:23;10.48;;;9.48;;
9689;SDS011;4884;42.614;23.340;2022-09-09T15:21:48;12.55;;;9.45;;
9689;SDS011;4884;42.614;23.340;2022-09-09T15:24:14;14.70;;;10.60;;
9689;SDS011;4884;42.614;23.340;2022-09-09T15:26:41;9.65;;;8.75;;
9689;SDS011;4884;42.614;23.340;2022-09-09T15:29:06;11.55;;;8.88;;
9689;SDS011;4884;42.614;23.340;2022-09-09T15:31:33;16.88;;;10.32;;
9689;SDS011;4884;42.614;23.340;2022-09-09T15:34:03;12.82;;;10.38;;
9689;SDS011;4884;42.614;23.340;2022-09-09T15:36:32;11.48;;;8.98;;
9689;SDS011;4884;42.614;23.340;2022-09-09T15:39:06;11.95;;;10.65;;
9689;SDS011;4884;42.614;23.340;2022-09-09T15:41:40;14.10;;;10.00;;
9689;SDS011;4884;42.614;23.340;2022-09-09T15:44:09;12.02;;;9.95;;
9689;SDS011;4884;42.614;23.340;2022-09-09T15:46:40;13.20;;;10.55;;
9689;SDS011;4884;42.614;23.340;2022-09-09T15:51:40;20.05;;;10.77;;
9689;SDS011;4884;42.614;23.340;2022-09-09T15:54:07;11.77;;;9.32;;
9689;SDS011;4884;42.614;23.340;2022-09-09T15:56:33;13.03;;;10.23;;
9689;SDS011;4884;42.614;23.340;2022-09-09T15:59:00;16.80;;;9.77;;
9689;SDS011;4884;42.614;23.340;2022-09-09T16:01:27;29.13;;;11.67;;
9689;SDS011;4884;42.614;23.340;2022-09-09T16:03:53;18.10;;;10.30;;
9689;SDS011;4884;42.614;23.340;2022-09-09T16:06:19;18.20;;;11.70;;
9689;SDS011;4884;42.614;23.340;2022-09-09T16:08:47;11.70;;;10.50;;
9689;SDS011;4884;42.614;23.340;2022-09-09T16:11:36;11.87;;;10.23;;
9689;SDS011;4884;42.614;23.340;2022-09-09T16:14:02;15.63;;;10.90;;
9689;SDS011;4884;42.614;23.340;2022-09-09T16:16:28;15.30;;;10.50;;
9689;SDS011;4884;42.614;23.340;2022-09-09T16:18:55;11.63;;;10.40;;
9689;SDS011;4884;42.614;23.340;2022-09-09T16:21:24;15.77;;;11.77;;
9689;SDS011;4884;42.614;23.340;2022-09-09T16:23:50;12.17;;;10.80;;
9689;SDS011;4884;42.614;23.340;2022-09-09T16:26:18;16.17;;;12.33;;
9689;SDS011;4884;42.614;23.340;2022-09-09T16:28:44;13.10;;;10.47;;
9689;SDS011;4884;42.614;23.340;2022-09-09T16:31:12;15.50;;;11.87;;
9689;SDS011;4884;42.614;23.340;2022-09-09T16:33:41;13.33;;;11.53;;
9689;SDS011;4884;42.614;23.340;2022-09-09T16:36:07;12.87;;;11.57;;
9689;SDS011;4884;42.614;23.340;2022-09-09T16:38:35;14.90;;;11.20;;
9689;SDS011;4884;42.614;23.340;2022-09-09T16:41:01;12.30;;;10.77;;
9689;SDS011;4884;42.614;23.340;2022-09-09T16:43:28;17.10;;;12.40;;
9689;SDS011;4884;42.614;23.340;2022-09-09T16:45:54;17.67;;;11.90;;
9689;SDS011;4884;42.614;23.340;2022-09-09T16:48:19;17.47;;;12.80;;
9689;SDS011;4884;42.614;23.340;2022-09-09T16:50:45;12.17;;;10.97;;
9689;SDS011;4884;42.614;23.340;2022-09-09T16:53:10;11.83;;;10.63;;
9689;SDS011;4884;42.614;23.340;2022-09-09T16:55:38;13.90;;;10.87;;
9689;SDS011;4884;42.614;23.340;2022-09-09T16:58:05;18.60;;;11.13;;
9689;SDS011;4884;42.614;23.340;2022-09-09T17:00:30;13.17;;;11.33;;
9689;SDS011;4884;42.614;23.340;2022-09-09T17:02:56;15.10;;;11.10;;
9689;SDS011;4884;42.614;23.340;2022-09-09T17:05:21;16.27;;;9.90;;
9689;SDS011;4884;42.614;23.340;2022-09-09T17:07:48;10.70;;;9.70;;
9689;SDS011;4884;42.614;23.340;2022-09-09T18:27:15;15.37;;;11.63;;
9689;SDS011;4884;42.614;23.340;2022-09-09T18:29:41;11.57;;;10.47;;
9689;SDS011;4884;42.614;23.340;2022-09-09T18:32:06;14.97;;;12.00;;
9689;SDS011;4884;42.614;23.340;2022-09-09T18:34:32;12.63;;;11.40;;
9689;SDS011;4884;42.614;23.340;2022-09-09T18:36:58;14.63;;;12.23;;
9689;SDS011;4884;42.614;23.340;2022-09-09T18:39:25;13.97;;;12.60;;
9689;SDS011;4884;42.614;23.340;2022-09-09T18:41:52;12.40;;;9.97;;
9689;SDS011;4884;42.614;23.340;2022-09-09T18:44:24;19.73;;;11.40;;
9689;SDS011;4884;42.614;23.340;2022-09-09T18:46:51;14.03;;;12.53;;
9689;SDS011;4884;42.614;23.340;2022-09-09T18:49:18;11.70;;;10.60;;
9689;SDS011;4884;42.614;23.340;2022-09-09T18:51:44;15.33;;;12.07;;
9689;SDS011;4884;42.614;23.340;2022-09-09T18:54:20;12.63;;;11.30;;
9689;SDS011;4884;42.614;23.340;2022-09-09T18:56:47;17.67;;;11.93;;